x

Northern Hawaii One - 245nm Ne Of Honolulu Hi (51000) Weather Station

7:50pm - Tue 22nd Apr 2014 All times are HST. -10 hours from GMT.

  • Wind
    13mph, 16mph gusts
  • Sea Temp 62°f
  • Air Temp 60°f
  • Sea Pressure 1027.1mb
  • Northern Hawaii One - 245nm Ne Of Honolulu Hi
  • Northern Hawaii One - 245nm Ne Of Honolulu Hi

More Historic Weather Station data

Upgrade to MSW Pro to gain access to the past 30 days of data for over 8000 Wavebouys and Weather Stations around the globe.

Join Pro

Comparision Forecast

View Surf forecast
   
Tue 04/22 7:50pm  -   -   -  13 16 mph 1027.1mb 62f 60f
6:50pm 9.5ft 13s 9s 11 16 mph 1026.6mb 62f 60f
5:50pm  -   -   -  11 13 mph 1026.4mb 62f 60f
4:50pm 10ft 14s 9s 11 16 mph 1026.8mb 63f 60f
3:50pm  -   -   -  11
mph
1026.9mb - 60f
2:50pm 9.5ft 14s 9s 16 18 mph 1027.1mb 63f 59f
1:50pm  -   -   -  13 18 mph 1027.4mb 62f 59f
12:50pm  -   -   -  13 18 mph 1027.9mb 62f 59f
11:50am  -   -   -  13 16 mph 1027.9mb 62f 58f
10:50am  -   -   -  11 18 mph 1028.3mb 62f 59f
9:50am 8ft 11s 8s 9 13 mph 1028.4mb 62f 58f
7:50am  -   -   -  11 13 mph 1028.2mb 61f 58f
6:50am  -   -   -  11
mph
1028.1mb - 58f
5:50am 8.5ft 11s 8s 9 13 mph 1027.7mb 61f 57f
4:50am  -   -   -  9 13 mph 1027.4mb 61f 57f
3:50am 9ft 11s 8s 9 13 mph 1027.2mb 61f 57f
2:50am 9ft 12s 8s 11 13 mph 1027.4mb 61f 56f
1:50am  -   -   -  11 16 mph 1027.7mb 61f 56f
12:50am 9ft 11s 8s 11 16 mph 1027.8mb 61f 56f
Mon 04/21 11:50pm  -   -   -  13 18 mph 1028.4mb 61f 57f
10:50pm  -   -   -  13 18 mph 1028.6mb 61f 57f
9:50pm  -   -   -  16 18 mph 1028.5mb 61f 57f
8:50pm 9.5ft 11s 8s 16 18 mph 1028.7mb 61f 57f
7:50pm 9ft 11s 8s 16 20 mph 1028.4mb 62f 57f
6:50pm 8.5ft 11s 7s 16 18 mph 1027.7mb 62f 57f
5:50pm 9ft 11s 7s 13 20 mph 1027.3mb 62f 56f
4:50pm 9ft 11s 8s 18 20 mph 1027.1mb 62f 57f
3:50pm 10ft 12s 8s 22 27 mph 1026.8mb 62f 54f
2:50pm 9ft 12s 8s 20 31 mph 1026.6mb 62f 55f
1:50pm 9.5ft 11s 7s 16 20 mph 1026.9mb 62f 56f
12:50pm  -   -   -  18 22 mph 1027.1mb 62f 57f
11:50am 9ft 13s 7s 18 25 mph 1027.1mb 62f 57f
10:50am  -   -   -  20 22 mph 1027.3mb 62f 57f
9:50am  -   -   -  18 22 mph 1027.1mb 62f 57f
8:50am 9ft 12s 7s 20 25 mph 1026.9mb 61f 57f
7:50am  -   -   -  16 20 mph 1026.8mb 61f 57f
5:50am  -   -   -  20
mph
1025.7mb 61f 58f
4:50am  -   -   -  18 25 mph 1025.5mb 61f 57f
3:50am 9ft 13s 8s 18 22 mph 1025.2mb 61f 57f
2:50am 9ft 12s 8s 18 22 mph 1025.1mb 61f 57f
1:50am 10ft 12s 9s 18 22 mph 1024.9mb 61f 57f
12:50am 10ft 13s 9s 16 20 mph 1025.4mb 61f 58f
Sun 04/20 11:50pm  -   -   -  16 22 mph 1025.5mb 61f 58f
10:50pm 10ft 13s 9s 16 20 mph 1025.8mb 62f 58f
9:50pm 9.5ft 13s 9s 13 18 mph 1025.9mb 62f 58f
8:50pm 10ft 13s 9s 13 18 mph 1025.7mb 62f 58f
7:50pm 9.5ft 13s 9s 11 16 mph 1025.6mb 62f 58f
6:50pm 11ft 13s 9s 13 16 mph 1025.1mb 62f 59f
5:50pm  -   -   -  9 13 mph 1024.5mb 62f 58f
4:50pm 10.5ft 13s 9s 11 16 mph 1024.3mb 62f 58f
3:50pm 10ft 12s 9s 13 16 mph 1024mb 62f 59f
2:50pm 10.5ft 13s 9s 16 20 mph 1024mb 63f 59f
1:50pm 11ft 13s 10s 13 20 mph 1024.2mb 63f 61f
11:50am  -   -   -  9 13 mph 1024.4mb 62f 61f
10:50am 11.5ft 13s 10s 2 7 mph 1025mb 62f 60f
9:50am  -   -   -  7 11 mph 1025.3mb 62f 59f
8:50am 11.5ft 13s 10s 7 11 mph 1025.1mb 62f 61f
7:50am  -   -   -  11 13 mph 1024.8mb 62f 60f
6:50am 10ft 13s 10s 4 9 mph 1024.5mb 62f 61f
5:50am 13ft 14s 10s 4 9 mph 1024.1mb 62f 60f
4:50am  -   -   -  11 16 mph 1023.8mb 62f 60f
3:50am  -   -   -  9 11 mph 1023.5mb 62f 59f
2:50am 13ft 14s 11s 9 11 mph 1023.4mb 62f 61f
1:50am 12ft 14s 10s 4 7 mph 1023.3mb 62f 61f
12:50am 13ft 15s 10s 9 11 mph 1024mb 62f 61f
Sat 04/19 11:50pm  -   -   -  9
mph
1024.3mb - 61f
10:50pm  -   -   -  16
mph
1025mb - 62f
9:50pm 12.5ft 15s 10s 13 18 mph 1024.8mb 63f 62f
8:50pm 11.5ft 14s 10s 9 11 mph 1025mb 63f 62f
7:50pm 12.5ft 11s 10s 9 11 mph 1025.1mb 63f 61f
6:50pm  -   -   -  9 11 mph 1024.9mb 63f 61f
5:50pm 12ft 13s 10s 11 16 mph 1024.3mb 63f 61f
4:50pm 13ft 14s 10s 11 13 mph 1024.4mb 64f 60f
3:50pm 13ft 13s 10s 9 13 mph 1024.2mb 64f 60f
2:50pm 13ft 14s 10s 11 13 mph 1024.3mb 64f 60f
1:50pm 16.5ft 14s 11s 9 11 mph 1024.8mb 64f 60f
12:50pm 14ft 13s 11s 7 11 mph 1025.2mb 64f 60f
11:50am 13.5ft 15s 10s 4 9 mph 1025.2mb 63f 60f
10:50am 13.5ft 14s 10s 4 9 mph 1025.2mb 63f 60f
9:50am 12ft 14s 10s 2 7 mph 1025.4mb 63f 60f
8:50am 12.5ft 14s 10s 2 4 mph 1025.3mb 62f 59f
7:50am 13ft 14s 10s  -  7 mph 1024.7mb 62f 59f
6:50am 11.5ft 13s 9s 2 7 mph 1024.4mb 62f 59f